createdAt,value
2023-08-31T00:00:56.511Z,100.00
2023-08-31T00:03:23.262Z,100.00
2023-08-31T00:05:52.465Z,100.00
2023-08-31T00:08:19.233Z,100.00
2023-08-31T00:10:46.339Z,100.00
2023-08-31T00:13:13.705Z,100.00
2023-08-31T00:15:42.356Z,100.00
2023-08-31T00:18:09.123Z,100.00
2023-08-31T00:20:35.989Z,100.00
2023-08-31T00:23:02.445Z,100.00
2023-08-31T00:25:29.655Z,100.00
2023-08-31T00:27:58.379Z,100.00
2023-08-31T00:30:30.659Z,100.00
2023-08-31T00:33:01.230Z,100.00
2023-08-31T00:35:31.100Z,100.00
2023-08-31T00:38:01.698Z,100.00
2023-08-31T00:40:31.823Z,100.00
2023-08-31T00:42:58.494Z,100.00
2023-08-31T00:45:25.309Z,100.00
2023-08-31T00:47:51.796Z,100.00
2023-08-31T00:50:18.313Z,100.00
2023-08-31T00:52:48.642Z,100.00
2023-08-31T00:55:15.384Z,100.00
2023-08-31T00:57:42.181Z,100.00
2023-08-31T01:00:09.668Z,100.00
2023-08-31T01:02:50.583Z,100.00
2023-08-31T01:05:50.901Z,100.00
2023-08-31T01:08:58.904Z,100.00
2023-08-31T01:11:28.367Z,100.00
2023-08-31T01:14:06.601Z,100.00
2023-08-31T01:16:35.345Z,100.00
2023-08-31T01:19:07.048Z,100.00
2023-08-31T01:21:41.266Z,100.00
2023-08-31T01:24:09.493Z,100.00
2023-08-31T01:26:36.661Z,100.00
2023-08-31T01:29:03.650Z,100.00
2023-08-31T01:31:30.323Z,100.00
2023-08-31T01:33:56.884Z,100.00
2023-08-31T01:36:37.725Z,100.00
2023-08-31T01:39:42.605Z,100.00
2023-08-31T01:42:11.241Z,100.00
2023-08-31T01:44:38.711Z,100.00
2023-08-31T01:47:07.149Z,100.00
2023-08-31T01:49:40.816Z,100.00
2023-08-31T01:52:08.198Z,100.00
2023-08-31T01:54:35.396Z,100.00
2023-08-31T01:57:01.932Z,100.00
2023-08-31T01:59:28.430Z,100.00
2023-08-31T02:01:55.331Z,100.00
2023-08-31T02:04:22.155Z,100.00
2023-08-31T02:06:48.655Z,100.00
2023-08-31T02:09:15.379Z,100.00
2023-08-31T02:11:41.982Z,100.00
2023-08-31T02:14:08.674Z,100.00
2023-08-31T02:16:35.613Z,100.00
2023-08-31T02:19:02.045Z,100.00
2023-08-31T02:21:28.762Z,100.00
2023-08-31T02:23:55.284Z,100.00
2023-08-31T02:26:22.549Z,100.00
2023-08-31T02:28:48.990Z,100.00
2023-08-31T02:31:15.730Z,100.00
2023-08-31T02:33:42.234Z,100.00
2023-08-31T02:36:08.715Z,100.00
2023-08-31T02:38:35.199Z,100.00
2023-08-31T02:41:01.663Z,100.00
2023-08-31T02:43:29.590Z,100.00
2023-08-31T02:46:03.378Z,100.00
2023-08-31T02:48:31.111Z,100.00
2023-08-31T02:50:59.645Z,100.00
2023-08-31T02:53:26.192Z,100.00
2023-08-31T02:55:52.668Z,100.00
2023-08-31T02:58:20.199Z,100.00
2023-08-31T03:00:49.466Z,100.00
2023-08-31T03:03:17.169Z,100.00
2023-08-31T03:05:44.064Z,100.00
2023-08-31T03:08:10.697Z,100.00
2023-08-31T03:10:37.944Z,100.00
2023-08-31T03:13:04.665Z,100.00
2023-08-31T03:15:34.857Z,100.00
2023-08-31T03:18:01.736Z,100.00
2023-08-31T03:20:28.196Z,100.00
2023-08-31T03:22:54.657Z,100.00
2023-08-31T03:25:21.109Z,100.00
2023-08-31T03:27:47.533Z,100.00
2023-08-31T03:30:14.316Z,100.00
2023-08-31T03:32:40.801Z,100.00
2023-08-31T03:35:08.414Z,100.00
2023-08-31T03:37:34.860Z,100.00
2023-08-31T03:40:01.311Z,100.00
2023-08-31T03:42:27.703Z,100.00
2023-08-31T03:44:54.134Z,100.00
2023-08-31T03:47:20.510Z,100.00
2023-08-31T03:49:46.952Z,100.00
2023-08-31T03:52:13.318Z,100.00
2023-08-31T03:54:39.938Z,100.00
2023-08-31T03:57:06.410Z,100.00
2023-08-31T03:59:32.797Z,100.00
2023-08-31T04:01:59.280Z,100.00
2023-08-31T04:04:25.826Z,100.00
2023-08-31T04:06:52.272Z,100.00
2023-08-31T04:09:20.108Z,100.00
2023-08-31T04:11:47.785Z,100.00
2023-08-31T04:14:14.258Z,100.00
2023-08-31T04:16:40.702Z,100.00
2023-08-31T04:19:07.098Z,100.00
2023-08-31T04:21:33.508Z,100.00
2023-08-31T04:24:01.274Z,100.00
2023-08-31T04:26:28.996Z,100.00
2023-08-31T04:28:55.656Z,100.00
2023-08-31T04:31:22.222Z,100.00
2023-08-31T04:33:49.334Z,100.00
2023-08-31T04:36:15.788Z,100.00
2023-08-31T04:38:42.221Z,100.00
2023-08-31T04:41:09.257Z,100.00
2023-08-31T04:43:35.793Z,100.00
2023-08-31T04:46:04.299Z,100.00
2023-08-31T04:48:30.851Z,100.00
2023-08-31T04:50:58.562Z,100.00
2023-08-31T04:53:25.209Z,100.00
2023-08-31T04:55:51.895Z,100.00
2023-08-31T04:58:18.388Z,100.00
2023-08-31T05:00:45.619Z,100.00
2023-08-31T05:03:12.300Z,100.00
2023-08-31T05:05:39.040Z,100.00
2023-08-31T05:08:06.008Z,100.00
2023-08-31T05:10:32.538Z,100.00
2023-08-31T05:12:58.984Z,100.00
2023-08-31T05:15:28.431Z,100.00
2023-08-31T05:17:55.445Z,100.00
2023-08-31T05:20:23.902Z,100.00
2023-08-31T05:22:50.277Z,100.00
2023-08-31T05:25:16.776Z,100.00
2023-08-31T05:27:43.214Z,100.00
2023-08-31T05:30:10.329Z,100.00
2023-08-31T05:32:36.727Z,100.00
2023-08-31T05:35:04.413Z,100.00
2023-08-31T05:37:35.214Z,100.00
2023-08-31T05:40:02.124Z,100.00
2023-08-31T05:42:28.685Z,100.00
2023-08-31T05:44:55.125Z,100.00
2023-08-31T05:47:21.625Z,100.00
2023-08-31T05:49:48.106Z,100.00
2023-08-31T05:52:14.583Z,100.00
2023-08-31T05:54:41.089Z,100.00
2023-08-31T05:57:07.665Z,100.00
2023-08-31T05:59:34.147Z,100.00
2023-08-31T06:02:00.611Z,100.00
2023-08-31T06:04:27.156Z,100.00
2023-08-31T06:06:55.056Z,100.00
2023-08-31T06:09:21.668Z,100.00
2023-08-31T06:11:48.243Z,100.00
2023-08-31T06:14:14.718Z,100.00
2023-08-31T06:16:41.246Z,100.00
2023-08-31T06:19:07.707Z,100.00
2023-08-31T06:21:34.211Z,100.00
2023-08-31T06:24:00.647Z,100.00
2023-08-31T06:26:27.069Z,100.00
2023-08-31T06:28:53.566Z,100.00
2023-08-31T06:31:20.441Z,100.00
2023-08-31T06:33:46.999Z,100.00
2023-08-31T06:36:13.448Z,100.00
2023-08-31T06:38:40.058Z,100.00
2023-08-31T06:41:07.148Z,100.00
2023-08-31T06:43:33.605Z,100.00
2023-08-31T06:46:10.425Z,100.00
2023-08-31T06:48:46.512Z,100.00
2023-08-31T06:51:12.886Z,100.00
2023-08-31T06:53:39.430Z,100.00
2023-08-31T06:56:05.821Z,100.00
2023-08-31T06:58:32.256Z,100.00
2023-08-31T07:00:59.569Z,100.00
2023-08-31T07:03:27.630Z,100.00
2023-08-31T07:05:55.381Z,100.00
2023-08-31T07:08:21.888Z,100.00
2023-08-31T07:10:48.678Z,100.00
2023-08-31T07:13:15.333Z,100.00
2023-08-31T07:15:41.937Z,100.00
2023-08-31T07:18:08.869Z,100.00
2023-08-31T07:20:35.571Z,100.00
2023-08-31T07:23:02.129Z,100.00
2023-08-31T07:25:29.610Z,100.00
2023-08-31T07:27:56.160Z,100.00
2023-08-31T07:30:22.626Z,100.00
2023-08-31T07:32:49.151Z,100.00
2023-08-31T07:35:15.731Z,100.00
2023-08-31T07:37:42.473Z,100.00
2023-08-31T07:40:11.128Z,100.00
2023-08-31T07:42:37.812Z,100.00
2023-08-31T07:45:06.543Z,100.00
2023-08-31T07:47:33.124Z,100.00
2023-08-31T07:49:59.621Z,100.00
2023-08-31T07:52:26.177Z,100.00
2023-08-31T07:54:52.576Z,100.00
2023-08-31T07:57:19.044Z,100.00
2023-08-31T07:59:45.600Z,100.00
2023-08-31T08:02:12.018Z,100.00
2023-08-31T08:04:38.490Z,100.00
2023-08-31T08:07:05.236Z,100.00
2023-08-31T08:09:31.686Z,100.00
2023-08-31T08:11:58.134Z,100.00
2023-08-31T08:14:24.581Z,100.00
2023-08-31T08:16:51.069Z,100.00
2023-08-31T08:19:23.372Z,100.00
2023-08-31T08:21:50.749Z,100.00
2023-08-31T08:24:17.548Z,100.00
2023-08-31T08:26:44.278Z,100.00
2023-08-31T08:29:10.808Z,100.00
2023-08-31T08:31:37.292Z,100.00
2023-08-31T08:34:04.911Z,100.00
2023-08-31T08:36:31.323Z,100.00
2023-08-31T08:38:57.676Z,100.00
2023-08-31T08:41:25.338Z,100.00
2023-08-31T08:43:53.545Z,100.00
2023-08-31T08:46:20.119Z,100.00
2023-08-31T08:48:48.491Z,100.00
2023-08-31T08:51:15.123Z,100.00
2023-08-31T08:53:45.438Z,100.00
2023-08-31T08:56:12.078Z,100.00
2023-08-31T08:58:38.654Z,100.00
2023-08-31T09:01:08.121Z,100.00
2023-08-31T09:03:36.217Z,100.00
2023-08-31T09:06:06.925Z,100.00
2023-08-31T09:08:33.543Z,100.00
2023-08-31T09:11:00.125Z,100.00
2023-08-31T09:13:30.842Z,100.00
2023-08-31T09:16:00.671Z,100.00
2023-08-31T09:18:29.102Z,100.00
2023-08-31T09:21:00.434Z,100.00
2023-08-31T09:23:27.404Z,100.00
2023-08-31T09:25:55.851Z,100.00
2023-08-31T09:28:27.201Z,100.00
2023-08-31T09:31:02.989Z,100.00
2023-08-31T09:33:29.487Z,100.00
2023-08-31T09:36:01.149Z,100.00
2023-08-31T09:38:27.547Z,100.00
2023-08-31T09:41:05.742Z,100.00
2023-08-31T09:43:32.186Z,100.00
2023-08-31T09:46:00.350Z,100.00
2023-08-31T09:48:28.147Z,100.00
2023-08-31T09:50:56.603Z,100.00
2023-08-31T09:53:27.069Z,100.00
2023-08-31T09:55:57.185Z,100.00
2023-08-31T09:58:24.322Z,100.00
2023-08-31T10:00:53.061Z,100.00
2023-08-31T10:03:21.967Z,100.00
2023-08-31T10:05:50.723Z,100.00
2023-08-31T10:08:18.806Z,100.00
2023-08-31T10:10:46.044Z,100.00
2023-08-31T10:13:12.993Z,91.27
2023-08-31T10:15:40.835Z,92.79
2023-08-31T10:18:08.131Z,91.03
2023-08-31T10:20:35.478Z,90.72
2023-08-31T10:23:06.361Z,82.92
2023-08-31T10:25:51.148Z,94.65
2023-08-31T10:28:18.686Z,83.68
2023-08-31T10:31:01.833Z,83.61
2023-08-31T10:33:28.299Z,71.16
2023-08-31T10:35:57.872Z,70.38
2023-08-31T10:38:31.579Z,67.64
2023-08-31T10:41:04.233Z,64.68
2023-08-31T10:44:00.934Z,66.05
2023-08-31T10:46:28.845Z,59.63
2023-08-31T10:49:11.643Z,59.59
2023-08-31T10:51:40.104Z,51.15
2023-08-31T10:54:14.473Z,51.97
2023-08-31T10:57:01.280Z,57.65
2023-08-31T10:59:42.635Z,57.18
2023-08-31T11:02:09.416Z,51.30
2023-08-31T11:04:57.519Z,50.53
2023-08-31T11:07:28.309Z,45.36
2023-08-31T11:10:20.850Z,47.96
2023-08-31T11:12:55.615Z,48.49
2023-08-31T11:15:23.865Z,43.57
2023-08-31T11:17:55.291Z,46.11
2023-08-31T11:20:23.245Z,45.99
2023-08-31T11:22:51.806Z,45.58
2023-08-31T11:25:19.191Z,45.65
2023-08-31T11:28:12.093Z,45.98
2023-08-31T11:30:38.583Z,39.05
2023-08-31T11:33:10.104Z,41.90
2023-08-31T11:35:38.677Z,40.53
2023-08-31T11:38:05.353Z,43.05
2023-08-31T11:40:31.889Z,43.30
2023-08-31T11:43:10.778Z,40.11
2023-08-31T11:45:39.542Z,38.50
2023-08-31T11:48:08.025Z,41.67
2023-08-31T11:50:34.923Z,40.21
2023-08-31T11:53:01.510Z,37.20
2023-08-31T11:55:29.644Z,38.04
2023-08-31T11:57:56.289Z,39.46
2023-08-31T12:00:23.438Z,35.94
2023-08-31T12:03:02.906Z,38.68
2023-08-31T12:05:30.121Z,32.55
2023-08-31T12:07:57.121Z,33.07
2023-08-31T12:10:27.593Z,35.34
2023-08-31T12:12:56.604Z,35.83
2023-08-31T12:15:24.255Z,31.79
2023-08-31T12:17:55.682Z,31.40
2023-08-31T12:20:30.216Z,34.12
2023-08-31T12:22:56.782Z,34.99
2023-08-31T12:25:23.748Z,34.17
2023-08-31T12:27:51.035Z,34.88
2023-08-31T12:30:17.531Z,37.04
2023-08-31T12:32:43.927Z,35.27
2023-08-31T12:35:11.042Z,37.22
2023-08-31T12:37:37.490Z,33.39
2023-08-31T12:40:08.007Z,36.80
2023-08-31T12:42:34.449Z,39.07
2023-08-31T12:45:00.902Z,41.29
2023-08-31T12:47:27.415Z,46.36
2023-08-31T12:49:53.869Z,49.18
2023-08-31T12:52:20.278Z,51.30
2023-08-31T12:54:47.483Z,47.60
2023-08-31T12:57:14.140Z,51.21
2023-08-31T12:59:40.563Z,58.14
2023-08-31T13:02:11.754Z,53.77
2023-08-31T13:04:39.957Z,55.80
2023-08-31T13:07:07.464Z,53.26
2023-08-31T13:09:33.875Z,55.90
2023-08-31T13:12:00.398Z,56.21
2023-08-31T13:14:26.796Z,55.62
2023-08-31T13:16:53.273Z,57.30
2023-08-31T13:19:20.665Z,57.74
2023-08-31T13:21:47.089Z,59.74
2023-08-31T13:24:13.515Z,60.64
2023-08-31T13:26:40.039Z,57.54
2023-08-31T13:29:06.453Z,54.48
2023-08-31T13:31:32.899Z,56.77
2023-08-31T13:33:59.362Z,55.32
2023-08-31T13:36:25.909Z,58.34
2023-08-31T13:38:52.409Z,55.33
2023-08-31T13:41:18.897Z,56.54
2023-08-31T13:43:45.442Z,57.70
2023-08-31T13:46:12.503Z,60.73
2023-08-31T13:48:38.948Z,58.81
2023-08-31T13:51:05.406Z,59.84
2023-08-31T13:53:31.822Z,59.53
2023-08-31T13:55:58.317Z,60.91
2023-08-31T13:58:24.749Z,62.18
2023-08-31T14:00:51.222Z,62.00
2023-08-31T14:03:18.289Z,59.40
2023-08-31T14:05:48.963Z,61.39
2023-08-31T14:08:15.755Z,59.42
2023-08-31T14:10:42.369Z,62.04
2023-08-31T14:13:08.822Z,60.11
2023-08-31T14:15:35.331Z,58.82
2023-08-31T14:18:01.894Z,59.67
2023-08-31T14:20:28.381Z,58.00
2023-08-31T14:22:54.850Z,62.30
2023-08-31T14:25:24.849Z,63.68
2023-08-31T14:27:51.308Z,60.43
2023-08-31T14:30:17.820Z,63.50
2023-08-31T14:32:44.249Z,63.71
2023-08-31T14:35:11.254Z,60.89
2023-08-31T14:37:37.801Z,59.58
2023-08-31T14:40:07.772Z,60.99
2023-08-31T14:42:34.760Z,61.20
2023-08-31T14:45:01.215Z,61.75
2023-08-31T14:47:27.836Z,61.96
2023-08-31T14:49:56.016Z,63.06
2023-08-31T14:52:22.453Z,64.84
2023-08-31T14:54:49.595Z,65.08
2023-08-31T14:57:16.092Z,61.37
2023-08-31T14:59:43.192Z,60.83
2023-08-31T15:02:09.704Z,59.77
2023-08-31T15:04:36.160Z,60.17
2023-08-31T15:07:02.743Z,59.58
2023-08-31T15:09:29.342Z,58.82
2023-08-31T15:11:55.776Z,61.97
2023-08-31T15:14:22.294Z,61.51
2023-08-31T15:16:48.714Z,60.96
2023-08-31T15:19:15.183Z,60.69
2023-08-31T15:21:41.738Z,62.08
2023-08-31T15:24:08.432Z,63.62
2023-08-31T15:26:34.966Z,65.95
2023-08-31T15:29:01.491Z,66.16
2023-08-31T15:31:28.021Z,61.76
2023-08-31T15:33:54.479Z,62.64
2023-08-31T15:36:20.952Z,62.73
2023-08-31T15:38:47.467Z,64.16
2023-08-31T15:41:15.317Z,64.12
2023-08-31T15:43:43.503Z,64.29
2023-08-31T15:46:10.094Z,66.21
2023-08-31T15:48:36.758Z,64.63
2023-08-31T15:51:03.892Z,63.75
2023-08-31T15:53:31.562Z,69.20
2023-08-31T15:55:58.166Z,69.18
2023-08-31T15:58:27.579Z,65.56
2023-08-31T16:01:02.041Z,66.59
2023-08-31T16:03:33.355Z,70.33
2023-08-31T16:06:00.421Z,70.61
2023-08-31T16:08:28.406Z,69.94
2023-08-31T16:10:55.232Z,73.50
2023-08-31T16:13:22.700Z,67.85
2023-08-31T16:15:50.607Z,66.97
2023-08-31T16:18:17.888Z,74.00
2023-08-31T16:20:44.941Z,69.98
2023-08-31T16:23:11.945Z,69.29
2023-08-31T16:25:38.393Z,69.39
2023-08-31T16:28:05.315Z,70.03
2023-08-31T16:30:32.013Z,72.42
2023-08-31T16:32:58.783Z,71.65
2023-08-31T16:35:25.354Z,68.75
2023-08-31T16:37:51.860Z,69.41
2023-08-31T16:40:18.475Z,72.59
2023-08-31T16:42:44.961Z,70.53
2023-08-31T16:45:12.043Z,72.63
2023-08-31T16:47:38.807Z,75.61
2023-08-31T16:50:05.648Z,70.25
2023-08-31T16:52:32.437Z,69.16
2023-08-31T16:54:59.570Z,69.21
2023-08-31T16:57:26.399Z,68.53
2023-08-31T16:59:53.101Z,71.86
2023-08-31T17:02:19.661Z,74.80
2023-08-31T17:04:46.122Z,78.15
2023-08-31T17:07:12.626Z,76.33
2023-08-31T17:09:39.094Z,76.33
2023-08-31T17:12:07.168Z,73.56
2023-08-31T17:14:33.876Z,72.01
2023-08-31T17:17:02.060Z,73.17
2023-08-31T17:19:29.137Z,75.53
2023-08-31T17:21:55.653Z,73.88
2023-08-31T17:24:22.080Z,76.81
2023-08-31T17:26:48.534Z,79.66
2023-08-31T17:29:15.297Z,78.75
2023-08-31T17:31:43.259Z,79.90
2023-08-31T17:34:13.136Z,79.58
2023-08-31T17:36:39.668Z,80.82
2023-08-31T17:39:06.141Z,81.48
2023-08-31T17:41:32.565Z,81.29
2023-08-31T17:43:58.994Z,84.23
2023-08-31T17:46:25.843Z,87.08
2023-08-31T17:48:52.545Z,85.50
2023-08-31T17:51:19.008Z,87.36
2023-08-31T17:53:46.164Z,89.70
2023-08-31T17:56:12.659Z,89.65
2023-08-31T17:58:39.079Z,90.91
2023-08-31T18:01:05.662Z,92.14
2023-08-31T18:03:33.027Z,90.25
2023-08-31T18:05:59.567Z,90.73
2023-08-31T18:08:28.052Z,90.81
2023-08-31T18:10:55.318Z,91.70
2023-08-31T18:13:22.194Z,92.32
2023-08-31T18:15:51.517Z,92.27
2023-08-31T18:18:19.528Z,92.17
2023-08-31T18:20:46.208Z,94.14
2023-08-31T18:23:12.756Z,95.89
2023-08-31T18:25:39.280Z,96.73
2023-08-31T18:28:05.916Z,96.66
2023-08-31T18:30:32.364Z,96.87
2023-08-31T18:33:02.776Z,97.29
2023-08-31T18:35:29.264Z,97.34
2023-08-31T18:37:55.648Z,98.09
2023-08-31T18:40:22.189Z,99.38
2023-08-31T18:42:48.647Z,100.00
2023-08-31T18:45:18.801Z,100.00
2023-08-31T18:47:46.661Z,100.00
2023-08-31T18:50:21.167Z,100.00
2023-08-31T18:52:48.732Z,100.00
2023-08-31T18:55:16.662Z,100.00
2023-08-31T18:57:46.817Z,100.00
2023-08-31T19:00:15.238Z,100.00
2023-08-31T19:02:43.875Z,100.00
2023-08-31T19:05:11.919Z,100.00
2023-08-31T19:07:39.112Z,100.00
2023-08-31T19:10:08.999Z,100.00
2023-08-31T19:12:36.802Z,100.00
2023-08-31T19:15:04.325Z,100.00
2023-08-31T19:17:30.881Z,100.00
2023-08-31T19:19:57.573Z,100.00
2023-08-31T19:22:24.257Z,100.00
2023-08-31T19:24:52.082Z,100.00
2023-08-31T19:27:18.794Z,100.00
2023-08-31T19:29:46.103Z,100.00
2023-08-31T19:32:12.679Z,100.00
2023-08-31T19:34:39.231Z,100.00
2023-08-31T19:37:05.980Z,100.00
2023-08-31T19:39:32.439Z,100.00
2023-08-31T19:42:02.052Z,100.00
2023-08-31T19:44:28.566Z,100.00
2023-08-31T19:46:56.196Z,100.00
2023-08-31T19:49:25.579Z,100.00
2023-08-31T19:51:52.064Z,100.00
2023-08-31T19:54:18.494Z,100.00
2023-08-31T19:56:44.982Z,100.00
2023-08-31T19:59:11.454Z,100.00
2023-08-31T20:01:40.420Z,100.00
2023-08-31T20:04:07.162Z,100.00
2023-08-31T20:06:33.761Z,100.00
2023-08-31T20:09:00.550Z,100.00
2023-08-31T20:11:27.056Z,100.00
2023-08-31T20:13:58.741Z,100.00
2023-08-31T20:16:26.569Z,100.00
2023-08-31T20:18:53.829Z,100.00
2023-08-31T20:21:20.316Z,100.00
2023-08-31T20:23:46.951Z,100.00
2023-08-31T20:26:13.383Z,100.00
2023-08-31T20:28:39.857Z,100.00
2023-08-31T20:31:07.621Z,100.00
2023-08-31T20:33:35.422Z,100.00
2023-08-31T20:36:09.687Z,100.00
2023-08-31T20:38:37.261Z,100.00
2023-08-31T20:41:04.864Z,100.00
2023-08-31T20:43:34.106Z,100.00
2023-08-31T20:46:07.240Z,100.00
2023-08-31T20:48:37.932Z,100.00
2023-08-31T20:51:06.303Z,100.00
2023-08-31T20:53:35.556Z,100.00
2023-08-31T20:56:09.560Z,100.00
2023-08-31T20:58:36.901Z,100.00
2023-08-31T21:01:11.273Z,100.00
2023-08-31T21:03:40.052Z,100.00
2023-08-31T21:06:10.792Z,100.00
2023-08-31T21:08:39.222Z,100.00
2023-08-31T21:11:05.751Z,100.00
2023-08-31T21:13:37.256Z,100.00
2023-08-31T21:16:08.088Z,100.00
2023-08-31T21:18:37.050Z,100.00
2023-08-31T21:21:04.526Z,100.00
2023-08-31T21:23:31.254Z,100.00
2023-08-31T21:26:06.196Z,100.00
2023-08-31T21:28:33.558Z,100.00
2023-08-31T21:31:02.547Z,100.00
2023-08-31T21:33:30.370Z,100.00
2023-08-31T21:35:56.849Z,100.00
2023-08-31T21:38:23.371Z,100.00
2023-08-31T21:40:50.104Z,100.00
2023-08-31T21:43:17.447Z,100.00
2023-08-31T21:45:43.981Z,100.00
2023-08-31T21:48:10.463Z,100.00
2023-08-31T21:50:40.108Z,100.00
2023-08-31T21:53:07.944Z,100.00
2023-08-31T21:55:35.019Z,100.00
2023-08-31T21:58:01.498Z,100.00
2023-08-31T22:00:28.010Z,100.00
2023-08-31T22:02:54.821Z,100.00
2023-08-31T22:05:26.182Z,100.00
2023-08-31T22:07:54.286Z,100.00
2023-08-31T22:10:21.156Z,100.00
2023-08-31T22:12:47.651Z,100.00
2023-08-31T22:15:16.539Z,100.00
2023-08-31T22:17:44.415Z,100.00
2023-08-31T22:20:13.859Z,100.00
2023-08-31T22:22:41.282Z,100.00
2023-08-31T22:25:08.719Z,100.00
2023-08-31T22:27:35.743Z,100.00
2023-08-31T22:30:03.897Z,100.00
2023-08-31T22:32:31.038Z,100.00
2023-08-31T22:34:57.561Z,100.00
2023-08-31T22:37:27.020Z,100.00
2023-08-31T22:39:53.588Z,100.00
2023-08-31T22:42:20.092Z,100.00
2023-08-31T22:44:46.941Z,100.00
2023-08-31T22:47:13.437Z,100.00
2023-08-31T22:49:40.059Z,100.00
2023-08-31T22:52:10.822Z,100.00
2023-08-31T22:54:41.183Z,100.00
2023-08-31T22:57:07.813Z,100.00
2023-08-31T22:59:34.825Z,100.00
2023-08-31T23:02:01.746Z,100.00
2023-08-31T23:04:28.413Z,100.00
2023-08-31T23:06:54.832Z,100.00
2023-08-31T23:09:21.960Z,100.00
2023-08-31T23:11:50.583Z,100.00
2023-08-31T23:14:17.424Z,100.00
2023-08-31T23:16:43.932Z,100.00
2023-08-31T23:19:10.417Z,100.00
2023-08-31T23:21:43.035Z,100.00
2023-08-31T23:24:10.219Z,100.00
2023-08-31T23:26:36.770Z,100.00
2023-08-31T23:29:03.286Z,100.00
2023-08-31T23:31:29.842Z,100.00
2023-08-31T23:33:56.502Z,100.00
2023-08-31T23:36:22.941Z,100.00
2023-08-31T23:38:51.575Z,100.00
2023-08-31T23:41:19.862Z,100.00
2023-08-31T23:43:46.786Z,100.00
2023-08-31T23:46:13.399Z,100.00
2023-08-31T23:48:40.046Z,100.00
2023-08-31T23:51:06.560Z,100.00
2023-08-31T23:53:34.662Z,100.00
2023-08-31T23:56:07.437Z,100.00
2023-08-31T23:58:34.296Z,100.00
